Time;durP1;ratioP1;P1;durP2;ratioP2;P2;SDS_P1;SDS_P2;PMS_P1;PMS_P2;Temp;Humidity;BMP_temperature;BMP_pressure;BME280_temperature;BME280_humidity;BME280_pressure;Samples;Min_cycle;Max_cycle;Signal;HPM_P1;HPM_P2
2022/10/30 00:00:57;;;;;;;10.48;6.47;;;;;;;;;;5074740;28;20119;-68
2022/10/30 00:03:22;;;;;;;10.55;5.60;;;;;;;;;;5072796;28;20643;-68
2022/10/30 00:05:50;;;;;;;8.55;6.55;;;;;;;;;;5072448;28;20013;-70
2022/10/30 00:08:16;;;;;;;7.78;5.40;;;;;;;;;;5073968;28;20020;-68
2022/10/30 00:10:42;;;;;;;11.27;5.78;;;;;;;;;;5059888;28;20020;-68
2022/10/30 00:13:08;;;;;;;13.80;6.35;;;;;;;;;;5074570;28;20043;-69
2022/10/30 00:15:33;;;;;;;8.13;6.05;;;;;;;;;;5074348;28;20061;-68
2022/10/30 00:17:58;;;;;;;11.48;6.47;;;;;;;;;;5073230;28;20032;-68
2022/10/30 00:20:24;;;;;;;9.98;6.50;;;;;;;;;;5072028;28;20482;-68
2022/10/30 00:22:49;;;;;;;17.23;6.57;;;;;;;;;;5069973;28;20028;-68
2022/10/30 00:25:14;;;;;;;10.90;6.82;;;;;;;;;;5070780;28;20474;-68
2022/10/30 00:27:39;;;;;;;9.50;6.40;;;;;;;;;;5059917;28;20044;-68
2022/10/30 00:30:05;;;;;;;10.40;5.63;;;;;;;;;;5071045;28;20270;-68
2022/10/30 00:32:30;;;;;;;15.10;6.68;;;;;;;;;;5073925;28;20753;-68
2022/10/30 00:34:55;;;;;;;17.90;7.20;;;;;;;;;;5071174;28;20032;-68
2022/10/30 00:37:20;;;;;;;11.30;5.90;;;;;;;;;;5061691;28;20321;-68
2022/10/30 00:39:46;;;;;;;11.27;5.67;;;;;;;;;;5067526;28;20272;-68
2022/10/30 00:42:11;;;;;;;11.50;5.93;;;;;;;;;;5063468;28;20293;-68
2022/10/30 00:44:37;;;;;;;9.02;5.28;;;;;;;;;;5064614;28;20271;-68
2022/10/30 00:47:05;;;;;;;13.63;5.78;;;;;;;;;;5053556;28;20474;-68
2022/10/30 00:49:35;;;;;;;10.85;5.75;;;;;;;;;;5067449;28;20028;-68
2022/10/30 00:52:02;;;;;;;10.88;6.88;;;;;;;;;;5061721;28;20020;-68
2022/10/30 00:54:27;;;;;;;13.77;5.70;;;;;;;;;;5073481;28;20107;-68
2022/10/30 00:56:53;;;;;;;13.30;6.32;;;;;;;;;;5073329;28;20120;-68
2022/10/30 00:59:21;;;;;;;26.60;6.38;;;;;;;;;;5073390;28;20023;-68
2022/10/30 01:01:46;;;;;;;10.45;6.45;;;;;;;;;;5072458;28;20378;-68
2022/10/30 01:04:13;;;;;;;9.35;5.75;;;;;;;;;;5070821;28;20020;-68
2022/10/30 01:06:40;;;;;;;14.07;5.97;;;;;;;;;;5072726;28;20024;-68
2022/10/30 01:09:06;;;;;;;13.13;6.28;;;;;;;;;;5073354;28;20008;-68
2022/10/30 01:11:31;;;;;;;9.43;6.15;;;;;;;;;;5071589;28;20025;-68
2022/10/30 01:13:58;;;;;;;19.90;6.72;;;;;;;;;;5059103;28;20379;-68
2022/10/30 01:16:38;;;;;;;8.15;6.32;;;;;;;;;;5072855;28;20099;-68
2022/10/30 01:19:22;;;;;;;10.80;6.05;;;;;;;;;;5072109;28;20024;-68
2022/10/30 01:22:04;;;;;;;12.60;7.30;;;;;;;;;;5061876;28;20043;-69
2022/10/30 01:24:45;;;;;;;14.23;7.10;;;;;;;;;;5058728;28;20054;-68
2022/10/30 01:27:32;;;;;;;13.82;6.47;;;;;;;;;;5071818;28;20024;-68
2022/10/30 01:30:10;;;;;;;10.88;6.18;;;;;;;;;;5059765;28;20469;-68
2022/10/30 01:32:53;;;;;;;17.92;7.30;;;;;;;;;;5072749;28;20033;-68
2022/10/30 01:35:18;;;;;;;9.95;6.18;;;;;;;;;;5062933;28;20202;-69
2022/10/30 01:37:47;;;;;;;11.50;6.03;;;;;;;;;;5066344;28;20112;-69
2022/10/30 01:40:13;;;;;;;10.05;6.05;;;;;;;;;;5071284;28;20016;-69
2022/10/30 01:42:49;;;;;;;23.95;6.35;;;;;;;;;;5058231;28;20028;-69
2022/10/30 01:45:21;;;;;;;12.18;5.68;;;;;;;;;;5079501;28;20020;-69
2022/10/30 01:47:52;;;;;;;10.02;5.50;;;;;;;;;;5084843;28;20466;-68
2022/10/30 01:50:20;;;;;;;13.75;5.50;;;;;;;;;;5083760;28;20024;-68
2022/10/30 01:52:54;;;;;;;17.92;5.50;;;;;;;;;;5070733;28;20031;-68
2022/10/30 01:55:25;;;;;;;11.30;5.90;;;;;;;;;;5074763;28;20067;-69
2022/10/30 01:57:56;;;;;;;15.85;7.20;;;;;;;;;;5070178;28;20039;-69
2022/10/30 02:00:21;;;;;;;11.98;6.18;;;;;;;;;;5082390;28;20082;-69
2022/10/30 02:02:47;;;;;;;12.48;6.30;;;;;;;;;;5084983;28;20500;-69
2022/10/30 02:05:18;;;;;;;10.15;5.82;;;;;;;;;;5079486;28;20020;-69
2022/10/30 02:07:44;;;;;;;8.85;5.53;;;;;;;;;;5077699;28;20020;-69
2022/10/30 02:10:09;;;;;;;7.93;5.67;;;;;;;;;;5059476;28;20375;-69
2022/10/30 02:12:35;;;;;;;11.63;6.45;;;;;;;;;;5071128;28;20823;-69
2022/10/30 02:15:00;;;;;;;13.55;6.25;;;;;;;;;;5072955;28;20020;-69
2022/10/30 02:17:26;;;;;;;10.38;5.93;;;;;;;;;;5071777;28;20052;-69
2022/10/30 02:19:51;;;;;;;10.60;5.78;;;;;;;;;;5086437;28;20024;-68
2022/10/30 02:22:16;;;;;;;11.07;6.35;;;;;;;;;;5078371;28;20012;-69
2022/10/30 02:24:42;;;;;;;9.32;5.13;;;;;;;;;;5091952;28;20098;-69
2022/10/30 02:27:07;;;;;;;12.07;5.78;;;;;;;;;;5072622;28;20019;-69
2022/10/30 02:29:33;;;;;;;9.73;5.80;;;;;;;;;;5063976;28;20013;-69
2022/10/30 02:31:58;;;;;;;11.45;5.68;;;;;;;;;;5070814;28;20107;-69
2022/10/30 02:34:23;;;;;;;15.93;5.78;;;;;;;;;;5073364;28;20020;-68
2022/10/30 02:36:48;;;;;;;7.55;4.95;;;;;;;;;;5067013;28;20029;-69
2022/10/30 02:39:13;;;;;;;18.40;6.10;;;;;;;;;;5055308;28;20021;-69
2022/10/30 02:41:39;;;;;;;12.63;6.30;;;;;;;;;;5060269;28;20106;-68
2022/10/30 02:44:05;;;;;;;8.57;4.78;;;;;;;;;;5055415;28;20343;-68
2022/10/30 02:46:30;;;;;;;15.63;6.43;;;;;;;;;;5052332;28;20024;-69
2022/10/30 02:48:56;;;;;;;9.90;6.35;;;;;;;;;;5063244;28;20020;-68
2022/10/30 02:51:21;;;;;;;10.53;5.60;;;;;;;;;;5066048;28;20502;-69
2022/10/30 02:53:46;;;;;;;7.70;5.47;;;;;;;;;;5068406;28;20655;-68
2022/10/30 02:56:12;;;;;;;10.32;5.68;;;;;;;;;;5060238;28;20016;-68
2022/10/30 02:58:38;;;;;;;11.35;5.47;;;;;;;;;;5071785;28;20387;-69
2022/10/30 03:01:08;;;;;;;15.00;5.90;;;;;;;;;;5071455;28;20024;-68
2022/10/30 03:03:33;;;;;;;12.75;5.53;;;;;;;;;;5073955;28;20048;-68
2022/10/30 03:05:59;;;;;;;15.02;6.97;;;;;;;;;;5073165;28;20482;-69
2022/10/30 03:08:24;;;;;;;11.60;6.65;;;;;;;;;;5059192;28;20032;-68
2022/10/30 03:10:49;;;;;;;15.50;6.40;;;;;;;;;;5062316;28;20028;-68
2022/10/30 03:13:15;;;;;;;9.93;6.27;;;;;;;;;;5070827;28;20266;-68
2022/10/30 03:15:40;;;;;;;9.85;5.75;;;;;;;;;;5066700;28;21212;-68
2022/10/30 03:18:05;;;;;;;9.13;5.97;;;;;;;;;;5067966;28;20021;-68
2022/10/30 03:20:30;;;;;;;10.35;5.82;;;;;;;;;;5062640;28;20104;-68
2022/10/30 03:22:56;;;;;;;12.27;6.73;;;;;;;;;;5065232;28;20029;-68
2022/10/30 03:25:22;;;;;;;10.93;5.88;;;;;;;;;;5071099;28;20289;-68
2022/10/30 03:27:47;;;;;;;15.98;6.85;;;;;;;;;;5071261;28;20028;-68
2022/10/30 03:30:13;;;;;;;16.58;6.38;;;;;;;;;;5070707;28;20013;-68
2022/10/30 03:32:38;;;;;;;11.60;6.65;;;;;;;;;;5068030;28;20488;-68
2022/10/30 03:35:03;;;;;;;17.38;6.25;;;;;;;;;;5061540;28;20021;-68
2022/10/30 03:37:28;;;;;;;14.02;6.13;;;;;;;;;;5070435;28;20111;-68
2022/10/30 03:39:54;;;;;;;10.27;5.13;;;;;;;;;;5070613;28;20364;-68
2022/10/30 03:42:19;;;;;;;13.07;5.90;;;;;;;;;;5071317;28;20803;-68
2022/10/30 03:44:44;;;;;;;10.93;6.83;;;;;;;;;;5059697;28;20820;-68
2022/10/30 03:47:09;;;;;;;11.33;5.93;;;;;;;;;;5062556;28;20823;-68
2022/10/30 03:49:34;;;;;;;10.40;6.38;;;;;;;;;;5064214;28;20277;-68
2022/10/30 03:52:00;;;;;;;10.23;6.63;;;;;;;;;;5067807;28;20473;-68
2022/10/30 03:54:25;;;;;;;16.60;6.90;;;;;;;;;;5088720;28;20737;-68
2022/10/30 03:56:50;;;;;;;17.60;7.13;;;;;;;;;;5087628;28;21216;-67
2022/10/30 03:59:15;;;;;;;22.07;7.10;;;;;;;;;;5074926;28;20361;-68
2022/10/30 04:01:40;;;;;;;11.57;6.47;;;;;;;;;;5082416;28;20352;-68
2022/10/30 04:04:06;;;;;;;11.70;7.03;;;;;;;;;;5087131;28;20035;-68
2022/10/30 04:06:31;;;;;;;11.90;7.60;;;;;;;;;;5074068;28;20617;-68
2022/10/30 04:08:56;;;;;;;10.98;7.15;;;;;;;;;;5074491;28;20613;-68
2022/10/30 04:11:21;;;;;;;13.98;7.05;;;;;;;;;;5075063;28;20013;-68
2022/10/30 04:13:47;;;;;;;8.90;5.70;;;;;;;;;;5090397;28;20112;-68
2022/10/30 04:16:12;;;;;;;9.27;6.10;;;;;;;;;;5076634;28;20031;-68
2022/10/30 04:18:37;;;;;;;9.47;6.00;;;;;;;;;;5071030;28;20060;-68
2022/10/30 04:21:03;;;;;;;12.30;6.18;;;;;;;;;;5070137;28;20274;-68
2022/10/30 04:23:28;;;;;;;9.43;5.75;;;;;;;;;;5076039;28;20027;-68
2022/10/30 04:25:53;;;;;;;13.95;7.05;;;;;;;;;;5066193;28;20024;-68
2022/10/30 04:28:20;;;;;;;13.75;6.47;;;;;;;;;;5067970;28;20032;-68
2022/10/30 04:30:46;;;;;;;10.82;6.35;;;;;;;;;;5033690;28;20017;-68
2022/10/30 04:33:11;;;;;;;12.80;6.75;;;;;;;;;;5041479;28;20017;-68
2022/10/30 04:35:37;;;;;;;11.50;6.28;;;;;;;;;;5062870;28;20029;-68
2022/10/30 04:38:12;;;;;;;10.05;6.05;;;;;;;;;;5057816;28;20108;-68
2022/10/30 04:40:38;;;;;;;9.75;6.05;;;;;;;;;;5058649;28;20016;-68
2022/10/30 04:43:04;;;;;;;10.20;6.53;;;;;;;;;;5058416;28;20575;-68
2022/10/30 04:45:29;;;;;;;8.95;5.97;;;;;;;;;;5055365;28;20104;-68
2022/10/30 04:48:05;;;;;;;15.05;6.88;;;;;;;;;;5061489;28;20105;-69
2022/10/30 04:50:30;;;;;;;14.05;6.50;;;;;;;;;;5073377;28;20020;-68
2022/10/30 04:53:00;;;;;;;12.27;6.28;;;;;;;;;;5077765;28;20021;-68
2022/10/30 04:55:25;;;;;;;19.13;6.50;;;;;;;;;;5072559;28;20078;-68
2022/10/30 04:57:54;;;;;;;11.55;6.10;;;;;;;;;;5067408;28;20453;-68
2022/10/30 05:00:19;;;;;;;10.95;6.68;;;;;;;;;;5083426;28;20059;-68
2022/10/30 05:02:44;;;;;;;13.70;7.30;;;;;;;;;;5092618;28;20050;-68
2022/10/30 05:05:09;;;;;;;10.37;6.63;;;;;;;;;;5075345;28;20266;-69
2022/10/30 05:07:35;;;;;;;11.17;6.20;;;;;;;;;;5080629;28;20277;-68
2022/10/30 05:10:00;;;;;;;10.13;6.18;;;;;;;;;;5072236;28;20290;-69
2022/10/30 05:12:25;;;;;;;8.43;5.80;;;;;;;;;;5073011;28;20029;-68
2022/10/30 05:14:50;;;;;;;10.90;6.40;;;;;;;;;;5061246;28;20267;-68
2022/10/30 05:17:16;;;;;;;9.93;6.07;;;;;;;;;;5072145;28;20462;-68
2022/10/30 05:19:41;;;;;;;10.43;5.97;;;;;;;;;;5073093;28;20870;-68
2022/10/30 05:22:06;;;;;;;13.30;6.67;;;;;;;;;;5073632;28;20012;-68
2022/10/30 05:24:31;;;;;;;17.73;6.80;;;;;;;;;;5066016;28;20306;-68
2022/10/30 05:26:56;;;;;;;15.82;6.57;;;;;;;;;;5067302;28;20294;-68
2022/10/30 05:29:22;;;;;;;14.80;6.77;;;;;;;;;;5071452;28;20568;-68
2022/10/30 05:31:47;;;;;;;9.20;6.13;;;;;;;;;;5060291;28;20694;-68
2022/10/30 05:34:12;;;;;;;9.13;5.85;;;;;;;;;;5071259;28;20689;-68
2022/10/30 05:36:37;;;;;;;8.97;6.20;;;;;;;;;;5068081;28;20036;-69
2022/10/30 05:39:03;;;;;;;10.03;5.70;;;;;;;;;;5071998;28;20286;-68
2022/10/30 05:41:28;;;;;;;12.70;6.35;;;;;;;;;;5072243;28;20270;-68
2022/10/30 05:43:53;;;;;;;13.15;6.25;;;;;;;;;;5069797;28;20471;-68
2022/10/30 05:46:19;;;;;;;10.90;6.63;;;;;;;;;;5054381;28;20021;-68
2022/10/30 05:48:44;;;;;;;14.35;6.20;;;;;;;;;;5062297;28;20345;-68
2022/10/30 05:51:09;;;;;;;16.55;7.35;;;;;;;;;;5085195;28;20059;-68
2022/10/30 05:53:34;;;;;;;12.57;6.50;;;;;;;;;;5065976;28;20032;-68
2022/10/30 05:56:00;;;;;;;10.43;6.20;;;;;;;;;;5056314;28;20017;-68
2022/10/30 05:58:25;;;;;;;9.20;6.13;;;;;;;;;;5057571;28;20029;-68
2022/10/30 06:00:50;;;;;;;10.13;5.85;;;;;;;;;;5057494;28;20275;-68
2022/10/30 06:03:16;;;;;;;10.60;6.35;;;;;;;;;;5069828;28;20024;-68
2022/10/30 06:05:43;;;;;;;12.10;6.13;;;;;;;;;;5053891;28;20074;-68
2022/10/30 06:08:08;;;;;;;12.68;6.20;;;;;;;;;;5065919;28;20352;-68
2022/10/30 06:10:34;;;;;;;13.25;6.60;;;;;;;;;;5053811;28;20075;-68
2022/10/30 06:13:00;;;;;;;10.52;6.35;;;;;;;;;;5064709;28;20020;-68
2022/10/30 06:15:25;;;;;;;12.25;6.88;;;;;;;;;;5075007;28;20524;-68
2022/10/30 06:17:51;;;;;;;15.15;7.00;;;;;;;;;;5066269;28;20086;-68
2022/10/30 06:20:17;;;;;;;18.70;7.22;;;;;;;;;;5071674;28;20094;-68
2022/10/30 06:22:51;;;;;;;10.40;6.80;;;;;;;;;;5078385;28;20020;-68
2022/10/30 06:25:17;;;;;;;9.13;5.68;;;;;;;;;;5074145;28;20027;-69
2022/10/30 06:27:42;;;;;;;11.93;6.90;;;;;;;;;;5065211;28;20013;-68
2022/10/30 06:30:07;;;;;;;12.57;6.77;;;;;;;;;;5071667;28;20273;-68
2022/10/30 06:32:32;;;;;;;11.52;6.45;;;;;;;;;;5068294;28;20314;-68
2022/10/30 06:34:58;;;;;;;10.47;6.20;;;;;;;;;;5065713;28;20032;-68
2022/10/30 06:37:23;;;;;;;8.65;6.45;;;;;;;;;;5070952;28;20316;-68
2022/10/30 06:39:48;;;;;;;14.15;7.13;;;;;;;;;;5070228;28;20020;-68
2022/10/30 06:42:13;;;;;;;14.27;6.17;;;;;;;;;;5070876;28;20017;-69
2022/10/30 06:44:39;;;;;;;14.80;7.27;;;;;;;;;;5068075;28;20313;-68
2022/10/30 06:47:04;;;;;;;9.90;6.13;;;;;;;;;;5057616;28;20271;-68
2022/10/30 06:49:29;;;;;;;11.07;6.15;;;;;;;;;;5068301;28;20275;-68
2022/10/30 06:51:54;;;;;;;12.07;6.70;;;;;;;;;;5061541;28;20012;-69
2022/10/30 06:54:19;;;;;;;10.73;6.80;;;;;;;;;;5085964;28;20362;-68
2022/10/30 06:56:48;;;;;;;16.57;8.03;;;;;;;;;;5081752;28;20039;-68
2022/10/30 06:59:13;;;;;;;11.93;7.45;;;;;;;;;;5064529;28;20310;-68
2022/10/30 07:01:38;;;;;;;20.00;8.03;;;;;;;;;;5059089;28;20413;-68
2022/10/30 07:04:04;;;;;;;12.23;8.00;;;;;;;;;;5058141;28;21070;-68
2022/10/30 07:06:29;;;;;;;17.98;9.35;;;;;;;;;;5047626;28;20616;-68
2022/10/30 07:08:54;;;;;;;19.40;7.97;;;;;;;;;;5056978;28;20021;-68
2022/10/30 07:11:19;;;;;;;13.82;7.78;;;;;;;;;;5049468;28;20024;-68
2022/10/30 07:13:44;;;;;;;11.87;7.87;;;;;;;;;;5057298;28;20801;-68
2022/10/30 07:16:10;;;;;;;18.90;7.40;;;;;;;;;;5060631;28;21041;-68
2022/10/30 07:18:35;;;;;;;16.30;8.52;;;;;;;;;;5055723;28;21049;-68
2022/10/30 07:21:00;;;;;;;20.07;7.80;;;;;;;;;;5056861;28;20020;-68
2022/10/30 07:23:25;;;;;;;14.57;6.95;;;;;;;;;;5045716;28;20286;-68
2022/10/30 07:25:51;;;;;;;11.93;6.70;;;;;;;;;;5066841;28;20461;-68
2022/10/30 07:28:16;;;;;;;12.17;7.13;;;;;;;;;;5060443;28;20747;-68
2022/10/30 07:30:41;;;;;;;16.33;7.50;;;;;;;;;;5075952;28;20611;-68
2022/10/30 07:33:08;;;;;;;11.23;6.97;;;;;;;;;;5063243;28;20013;-68
2022/10/30 07:35:34;;;;;;;13.55;7.53;;;;;;;;;;5059978;28;20025;-68
2022/10/30 07:38:03;;;;;;;11.00;7.53;;;;;;;;;;5061233;28;20048;-68
2022/10/30 07:40:29;;;;;;;11.43;7.03;;;;;;;;;;5065753;28;20056;-68
2022/10/30 07:42:54;;;;;;;13.23;7.18;;;;;;;;;;5070228;28;20438;-68
2022/10/30 07:45:19;;;;;;;10.27;6.80;;;;;;;;;;5063440;28;20031;-68
2022/10/30 07:47:45;;;;;;;14.67;7.23;;;;;;;;;;5049801;28;20036;-69
2022/10/30 07:50:10;;;;;;;15.47;7.70;;;;;;;;;;5052100;28;20263;-69
2022/10/30 07:52:35;;;;;;;11.75;7.88;;;;;;;;;;5056011;28;20293;-69
2022/10/30 07:55:01;;;;;;;11.70;6.82;;;;;;;;;;5074562;28;20573;-68
2022/10/30 07:57:29;;;;;;;8.77;6.22;;;;;;;;;;5054432;28;20032;-69
2022/10/30 07:59:54;;;;;;;11.32;6.53;;;;;;;;;;5063694;28;20059;-69
2022/10/30 08:02:19;;;;;;;9.83;6.97;;;;;;;;;;5055751;28;20077;-68
2022/10/30 08:04:45;;;;;;;11.13;6.80;;;;;;;;;;5067646;28;20366;-68
2022/10/30 08:07:10;;;;;;;11.00;6.87;;;;;;;;;;5069282;28;20281;-68
2022/10/30 08:09:35;;;;;;;10.77;6.63;;;;;;;;;;5049854;28;20275;-69
2022/10/30 08:12:00;;;;;;;10.83;7.00;;;;;;;;;;5057073;28;20024;-68
2022/10/30 08:14:25;;;;;;;17.23;6.40;;;;;;;;;;5068826;28;20304;-69
2022/10/30 08:16:51;;;;;;;16.27;6.63;;;;;;;;;;5068751;28;20810;-69
2022/10/30 08:19:16;;;;;;;10.80;5.50;;;;;;;;;;5068943;28;20729;-69
2022/10/30 08:21:41;;;;;;;9.97;6.47;;;;;;;;;;5067361;28;20636;-68
2022/10/30 08:24:06;;;;;;;9.27;5.20;;;;;;;;;;5068230;28;20373;-68
2022/10/30 08:26:32;;;;;;;14.00;6.07;;;;;;;;;;5068483;28;20349;-68
2022/10/30 08:28:57;;;;;;;14.38;5.68;;;;;;;;;;5069263;28;20052;-68
2022/10/30 08:31:22;;;;;;;12.00;5.03;;;;;;;;;;5069406;28;20363;-68
2022/10/30 08:33:47;;;;;;;11.40;5.77;;;;;;;;;;5069235;28;20836;-68
2022/10/30 08:36:12;;;;;;;34.10;5.93;;;;;;;;;;5070136;28;20706;-68
2022/10/30 08:38:38;;;;;;;12.13;5.40;;;;;;;;;;5062529;28;20883;-68
2022/10/30 08:41:03;;;;;;;9.00;5.70;;;;;;;;;;5051115;28;20801;-68
2022/10/30 08:43:29;;;;;;;12.00;5.18;;;;;;;;;;5066306;28;20024;-69
2022/10/30 08:45:56;;;;;;;10.48;4.88;;;;;;;;;;5067943;28;20107;-68
2022/10/30 08:48:21;;;;;;;13.25;4.88;;;;;;;;;;5053508;28;20020;-68
2022/10/30 08:50:47;;;;;;;12.50;5.50;;;;;;;;;;5055431;28;20794;-68
2022/10/30 08:53:13;;;;;;;11.43;5.17;;;;;;;;;;5073354;28;20623;-68
2022/10/30 08:55:38;;;;;;;11.95;5.18;;;;;;;;;;5087762;28;20331;-68
2022/10/30 08:58:03;;;;;;;13.07;4.97;;;;;;;;;;5062506;28;20025;-68
2022/10/30 09:00:29;;;;;;;12.80;5.32;;;;;;;;;;5061863;28;20284;-68
2022/10/30 09:02:54;;;;;;;14.93;5.68;;;;;;;;;;5068924;28;20112;-68
2022/10/30 09:05:19;;;;;;;13.93;5.32;;;;;;;;;;5069203;28;20027;-68
2022/10/30 09:07:45;;;;;;;8.43;4.88;;;;;;;;;;5083310;28;20020;-68
2022/10/30 09:10:10;;;;;;;13.13;5.72;;;;;;;;;;5057645;28;20016;-68
2022/10/30 09:12:35;;;;;;;12.77;5.32;;;;;;;;;;5065543;28;20020;-68
2022/10/30 09:15:01;;;;;;;10.07;5.20;;;;;;;;;;5054741;28;20021;-67
2022/10/30 09:17:26;;;;;;;9.35;4.95;;;;;;;;;;5066370;28;20298;-68
2022/10/30 09:19:51;;;;;;;9.57;4.97;;;;;;;;;;5073777;28;20476;-68
2022/10/30 09:22:16;;;;;;;13.18;5.50;;;;;;;;;;5075055;28;20628;-68
2022/10/30 09:24:42;;;;;;;10.77;4.70;;;;;;;;;;5067435;28;20028;-68
2022/10/30 09:27:07;;;;;;;15.48;5.07;;;;;;;;;;5063747;28;20535;-67
2022/10/30 09:29:32;;;;;;;10.80;4.60;;;;;;;;;;5053566;28;20066;-68
2022/10/30 09:31:58;;;;;;;13.80;5.10;;;;;;;;;;5068371;28;20285;-68
2022/10/30 09:34:23;;;;;;;13.95;5.15;;;;;;;;;;5058892;28;20029;-67
2022/10/30 09:36:48;;;;;;;12.15;5.43;;;;;;;;;;5065575;28;20090;-68
2022/10/30 09:39:14;;;;;;;8.80;4.70;;;;;;;;;;5080934;28;20024;-68
2022/10/30 09:41:58;;;;;;;13.93;4.68;;;;;;;;;;5071544;28;20291;-67
2022/10/30 09:44:34;;;;;;;16.05;5.68;;;;;;;;;;5067027;28;20032;-68
2022/10/30 09:47:05;;;;;;;16.30;5.40;;;;;;;;;;5052030;28;20546;-67
2022/10/30 09:49:43;;;;;;;11.90;4.57;;;;;;;;;;5060933;28;20024;-68
2022/10/30 09:52:08;;;;;;;11.73;4.50;;;;;;;;;;5053640;28;20039;-67
2022/10/30 09:54:54;;;;;;;13.20;5.23;;;;;;;;;;5081427;28;20047;-68
2022/10/30 09:57:22;;;;;;;19.20;4.75;;;;;;;;;;5080136;28;20040;-67
2022/10/30 09:59:53;;;;;;;10.80;4.80;;;;;;;;;;5079288;28;20032;-68
2022/10/30 10:02:28;;;;;;;10.55;5.38;;;;;;;;;;5065234;28;20805;-67
2022/10/30 10:04:56;;;;;;;9.80;4.20;;;;;;;;;;5059820;28;20024;-68
2022/10/30 10:07:27;;;;;;;16.77;4.88;;;;;;;;;;5063679;28;20016;-67
2022/10/30 10:09:55;;;;;;;9.73;4.68;;;;;;;;;;5064466;28;20028;-68
2022/10/30 10:12:53;;;;;;;7.72;4.57;;;;;;;;;;5058062;28;20024;-68
2022/10/30 10:15:21;;;;;;;11.55;4.93;;;;;;;;;;5045729;28;20028;-68
2022/10/30 10:17:46;;;;;;;12.30;5.25;;;;;;;;;;5064720;28;20059;-68
2022/10/30 10:20:32;;;;;;;13.02;5.15;;;;;;;;;;5065877;28;20063;-67
2022/10/30 10:22:59;;;;;;;10.00;4.93;;;;;;;;;;5042273;28;20108;-67
2022/10/30 10:25:25;;;;;;;11.35;5.05;;;;;;;;;;5062673;28;20544;-67
2022/10/30 10:28:05;;;;;;;15.02;5.10;;;;;;;;;;5053774;28;20021;-67
2022/10/30 10:30:41;;;;;;;8.75;4.75;;;;;;;;;;5050701;28;20036;-67
2022/10/30 10:33:20;;;;;;;18.75;5.38;;;;;;;;;;5058861;28;20497;-67
2022/10/30 10:35:52;;;;;;;15.05;5.38;;;;;;;;;;5069998;28;20459;-68
2022/10/30 10:38:23;;;;;;;10.57;5.50;;;;;;;;;;5076499;28;20061;-68
2022/10/30 10:40:54;;;;;;;10.00;4.63;;;;;;;;;;5063381;28;20028;-68
2022/10/30 10:43:27;;;;;;;17.30;5.50;;;;;;;;;;5065460;28;20027;-68
2022/10/30 10:46:11;;;;;;;13.32;4.88;;;;;;;;;;5068879;28;20012;-67
2022/10/30 10:48:54;;;;;;;14.13;5.00;;;;;;;;;;5054925;28;20119;-67
2022/10/30 10:51:28;;;;;;;10.55;5.22;;;;;;;;;;5064253;28;20772;-67
2022/10/30 10:53:55;;;;;;;10.05;4.15;;;;;;;;;;5059189;28;20024;-68
2022/10/30 10:56:24;;;;;;;11.32;4.78;;;;;;;;;;5062599;28;20035;-67
2022/10/30 10:58:54;;;;;;;12.05;5.25;;;;;;;;;;5052792;28;20037;-68
2022/10/30 11:01:30;;;;;;;10.55;4.20;;;;;;;;;;5055950;28;20048;-68
2022/10/30 11:04:04;;;;;;;8.25;4.82;;;;;;;;;;5063080;28;20434;-70
2022/10/30 11:06:33;;;;;;;10.67;5.23;;;;;;;;;;5050256;28;20041;-68
2022/10/30 11:09:09;;;;;;;9.73;4.53;;;;;;;;;;5070558;28;20326;-67
2022/10/30 11:11:34;;;;;;;8.45;4.30;;;;;;;;;;5076222;28;20678;-66
2022/10/30 11:13:59;;;;;;;12.27;4.95;;;;;;;;;;5070815;28;20020;-67
2022/10/30 11:16:28;;;;;;;15.55;5.25;;;;;;;;;;5071928;28;20035;-68
2022/10/30 11:18:56;;;;;;;18.95;5.10;;;;;;;;;;5075851;28;20398;-65
2022/10/30 11:21:23;;;;;;;13.32;5.15;;;;;;;;;;5052070;28;20475;-66
2022/10/30 11:23:49;;;;;;;10.38;4.38;;;;;;;;;;5070588;28;20493;-66
2022/10/30 11:26:17;;;;;;;15.90;5.20;;;;;;;;;;5071339;28;20025;-68
2022/10/30 11:28:57;;;;;;;15.82;4.93;;;;;;;;;;5073627;28;20037;-68
2022/10/30 11:31:26;;;;;;;7.00;3.92;;;;;;;;;;5076155;28;20115;-69
2022/10/30 11:33:52;;;;;;;16.77;4.63;;;;;;;;;;5072155;28;20028;-68
2022/10/30 11:36:20;;;;;;;15.85;5.40;;;;;;;;;;5061690;28;20033;-67
2022/10/30 11:38:46;;;;;;;11.95;4.78;;;;;;;;;;5056511;28;20025;-67
2022/10/30 11:41:12;;;;;;;18.33;5.10;;;;;;;;;;5060455;28;20624;-67
2022/10/30 11:43:38;;;;;;;9.27;4.55;;;;;;;;;;5040659;28;20274;-66
2022/10/30 11:46:08;;;;;;;14.65;4.65;;;;;;;;;;5052546;28;20514;-66
2022/10/30 11:48:34;;;;;;;11.07;4.78;;;;;;;;;;5038747;28;20776;-68
2022/10/30 11:51:00;;;;;;;14.73;4.85;;;;;;;;;;5062955;28;20308;-69
2022/10/30 11:53:35;;;;;;;8.75;4.65;;;;;;;;;;5056712;28;20104;-68
2022/10/30 11:56:01;;;;;;;15.43;5.18;;;;;;;;;;5061265;28;20024;-68
2022/10/30 11:58:31;;;;;;;7.90;4.60;;;;;;;;;;5047940;28;20033;-71
2022/10/30 12:01:09;;;;;;;9.68;4.72;;;;;;;;;;5058130;28;20027;-69
2022/10/30 12:03:36;;;;;;;16.35;5.88;;;;;;;;;;5054171;28;20031;-69
2022/10/30 12:06:08;;;;;;;15.80;5.20;;;;;;;;;;5058857;28;20063;-69
2022/10/30 12:08:33;;;;;;;13.45;5.05;;;;;;;;;;5057311;28;20127;-69
2022/10/30 12:11:00;;;;;;;8.48;5.18;;;;;;;;;;5053433;28;20112;-69
2022/10/30 12:13:25;;;;;;;12.07;5.70;;;;;;;;;;5059761;28;20023;-70
2022/10/30 12:16:05;;;;;;;10.95;5.00;;;;;;;;;;5056686;28;20370;-70
2022/10/30 12:18:31;;;;;;;13.18;5.28;;;;;;;;;;5055256;28;20044;-69
2022/10/30 12:20:57;;;;;;;10.13;5.20;;;;;;;;;;5061793;28;20067;-70
2022/10/30 12:23:24;;;;;;;12.35;4.88;;;;;;;;;;5056768;28;20025;-70
2022/10/30 12:26:19;;;;;;;8.00;5.05;;;;;;;;;;5060194;28;20028;-69
2022/10/30 12:28:56;;;;;;;9.00;4.55;;;;;;;;;;5051198;28;20062;-70
2022/10/30 12:31:29;;;;;;;12.10;5.47;;;;;;;;;;5031227;28;20090;-69
2022/10/30 12:34:04;;;;;;;10.73;4.60;;;;;;;;;;5051256;28;20494;-69
2022/10/30 12:36:32;;;;;;;12.98;4.55;;;;;;;;;;5076352;28;20027;-70
2022/10/30 12:39:01;;;;;;;9.38;5.25;;;;;;;;;;5063702;28;20017;-69
2022/10/30 12:41:29;;;;;;;12.57;5.15;;;;;;;;;;5051988;28;20060;-69
2022/10/30 12:44:02;;;;;;;16.40;5.45;;;;;;;;;;5070300;28;20038;-69
2022/10/30 12:46:32;;;;;;;20.33;5.03;;;;;;;;;;5058517;28;20471;-69
2022/10/30 12:49:17;;;;;;;12.85;4.20;;;;;;;;;;5063764;28;20013;-69
2022/10/30 12:51:48;;;;;;;9.50;5.47;;;;;;;;;;5060522;28;20064;-69
2022/10/30 12:54:16;;;;;;;15.63;4.90;;;;;;;;;;5067390;28;20026;-69
2022/10/30 12:56:45;;;;;;;13.10;5.38;;;;;;;;;;5058996;28;20024;-70
2022/10/30 12:59:10;;;;;;;10.55;5.03;;;;;;;;;;5064204;28;20039;-70
2022/10/30 13:01:48;;;;;;;9.03;4.43;;;;;;;;;;5071069;28;20024;-68
2022/10/30 13:04:25;;;;;;;11.73;4.88;;;;;;;;;;5066175;28;20483;-69
2022/10/30 13:06:56;;;;;;;11.48;5.00;;;;;;;;;;5069397;28;20028;-69
2022/10/30 13:09:24;;;;;;;14.50;5.05;;;;;;;;;;5048096;28;20128;-69
2022/10/30 13:11:52;;;;;;;11.15;4.57;;;;;;;;;;5060629;28;20837;-70
2022/10/30 13:14:20;;;;;;;9.27;5.25;;;;;;;;;;5058999;28;20020;-70
2022/10/30 13:16:45;;;;;;;14.18;4.95;;;;;;;;;;5065847;28;20055;-69
2022/10/30 13:19:12;;;;;;;8.82;4.45;;;;;;;;;;5055860;28;20127;-69
2022/10/30 13:21:48;;;;;;;15.90;4.88;;;;;;;;;;5053027;28;20036;-70
2022/10/30 13:24:16;;;;;;;10.10;4.68;;;;;;;;;;5054075;28;20036;-70
2022/10/30 13:26:42;;;;;;;11.73;4.80;;;;;;;;;;5049349;28;20013;-70
2022/10/30 13:29:23;;;;;;;12.30;4.53;;;;;;;;;;5028297;28;20132;-68
2022/10/30 13:31:51;;;;;;;15.52;5.05;;;;;;;;;;5060039;28;20051;-68
2022/10/30 13:34:26;;;;;;;10.93;4.35;;;;;;;;;;5041888;28;20025;-68
2022/10/30 13:37:07;;;;;;;12.82;4.70;;;;;;;;;;5052324;28;20044;-67
2022/10/30 13:39:39;;;;;;;14.13;5.18;;;;;;;;;;5056500;28;20016;-67
2022/10/30 13:42:07;;;;;;;13.15;5.15;;;;;;;;;;5053489;28;20017;-65
2022/10/30 13:44:51;;;;;;;10.13;5.00;;;;;;;;;;5053619;28;20158;-68
2022/10/30 13:47:35;;;;;;;8.10;4.47;;;;;;;;;;5060050;28;20017;-68
2022/10/30 13:50:06;;;;;;;7.63;4.07;;;;;;;;;;5053434;28;20152;-69
2022/10/30 13:52:33;;;;;;;14.90;4.90;;;;;;;;;;5055183;28;20033;-68
2022/10/30 13:54:58;;;;;;;8.35;4.20;;;;;;;;;;5040631;28;20021;-69
2022/10/30 13:57:26;;;;;;;15.20;4.70;;;;;;;;;;5048027;28;20037;-69
2022/10/30 13:59:57;;;;;;;13.77;4.80;;;;;;;;;;5044353;28;20025;-67
2022/10/30 14:02:41;;;;;;;13.05;4.47;;;;;;;;;;5051793;28;20100;-69
2022/10/30 14:05:06;;;;;;;10.13;4.22;;;;;;;;;;5054343;28;20024;-68
2022/10/30 14:07:50;;;;;;;8.73;4.07;;;;;;;;;;5051569;28;20028;-68
2022/10/30 14:10:23;;;;;;;8.40;3.97;;;;;;;;;;5050070;28;20028;-69
2022/10/30 14:12:50;;;;;;;11.98;4.10;;;;;;;;;;5056744;28;20082;-69
2022/10/30 14:15:25;;;;;;;9.13;4.05;;;;;;;;;;5048465;28;20140;-69
2022/10/30 14:18:09;;;;;;;8.40;4.03;;;;;;;;;;5053086;28;20025;-69
2022/10/30 14:20:34;;;;;;;9.73;4.25;;;;;;;;;;5055711;28;20474;-69
2022/10/30 14:23:07;;;;;;;6.23;4.27;;;;;;;;;;5062862;28;20031;-69
2022/10/30 14:25:33;;;;;;;10.30;4.28;;;;;;;;;;5058085;28;20267;-69
2022/10/30 14:27:58;;;;;;;8.20;4.05;;;;;;;;;;5061337;28;20682;-69
2022/10/30 14:30:25;;;;;;;14.00;4.73;;;;;;;;;;5035839;28;20129;-69
2022/10/30 14:32:51;;;;;;;10.65;4.55;;;;;;;;;;5022844;28;20271;-69
2022/10/30 14:35:35;;;;;;;13.70;4.47;;;;;;;;;;5063968;28;20443;-69
2022/10/30 14:38:00;;;;;;;;;;;;;;;;;;5055190;28;20024;-68